createdAt,value
2022-12-11T00:01:57.795Z,27.02
2022-12-11T00:05:02.428Z,23.20
2022-12-11T00:08:07.081Z,24.00
2022-12-11T00:11:16.660Z,23.83
2022-12-11T00:14:21.071Z,24.83
2022-12-11T00:17:25.675Z,22.50
2022-12-11T00:20:30.071Z,26.40
2022-12-11T00:23:35.911Z,23.55
2022-12-11T00:26:40.193Z,23.52
2022-12-11T00:29:44.598Z,23.13
2022-12-11T00:32:51.781Z,26.80
2022-12-11T00:35:56.239Z,24.98
2022-12-11T00:39:03.837Z,26.60
2022-12-11T00:42:09.368Z,26.85
2022-12-11T00:45:13.814Z,25.92
2022-12-11T00:48:18.304Z,24.60
2022-12-11T00:51:22.516Z,23.63
2022-12-11T00:54:26.978Z,26.08
2022-12-11T00:57:31.382Z,24.13
2022-12-11T01:00:36.230Z,23.77
2022-12-11T01:03:40.566Z,22.25
2022-12-11T01:06:44.621Z,24.95
2022-12-11T01:10:07.365Z,29.65
2022-12-11T01:13:12.403Z,25.67
2022-12-11T01:16:17.107Z,26.90
2022-12-11T01:19:22.134Z,27.02
2022-12-11T01:22:26.334Z,28.10
2022-12-11T01:25:30.629Z,26.67
2022-12-11T01:28:34.961Z,23.50
2022-12-11T01:31:39.438Z,21.95
2022-12-11T01:34:43.747Z,24.73
2022-12-11T01:37:49.218Z,26.17
2022-12-11T01:40:53.623Z,23.92
2022-12-11T01:44:27.332Z,22.88
2022-12-11T01:47:32.161Z,23.30
2022-12-11T01:50:54.656Z,26.95
2022-12-11T01:54:09.213Z,24.20
2022-12-11T01:57:15.459Z,25.73
2022-12-11T02:00:21.321Z,25.10
2022-12-11T02:03:26.166Z,29.83
2022-12-11T02:06:49.267Z,24.52
2022-12-11T02:09:54.398Z,17.85
2022-12-11T02:13:07.687Z,25.27
2022-12-11T02:16:47.056Z,18.40
2022-12-11T02:20:28.123Z,24.45
2022-12-11T02:23:51.532Z,21.67
2022-12-11T02:27:18.719Z,25.20
2022-12-11T02:30:23.975Z,22.73
2022-12-11T02:34:01.149Z,22.63
2022-12-11T02:37:12.243Z,26.23
2022-12-11T02:40:23.005Z,29.63
2022-12-11T02:43:30.708Z,24.90
2022-12-11T02:46:36.894Z,21.83
2022-12-11T02:49:44.677Z,24.42
2022-12-11T02:52:54.150Z,21.85
2022-12-11T02:56:13.963Z,23.70
2022-12-11T02:59:29.116Z,26.60
2022-12-11T03:02:33.504Z,23.77
2022-12-11T03:05:38.078Z,28.90
2022-12-11T03:08:42.735Z,25.30
2022-12-11T03:11:47.382Z,27.02
2022-12-11T03:14:52.089Z,32.25
2022-12-11T03:18:27.264Z,23.83
2022-12-11T03:22:12.772Z,23.40
2022-12-11T03:25:25.954Z,22.02
2022-12-11T03:28:37.493Z,18.10
2022-12-11T03:32:09.857Z,23.85
2022-12-11T03:35:48.570Z,21.15
2022-12-11T03:39:30.162Z,24.23
2022-12-11T03:42:36.707Z,26.13
2022-12-11T03:45:42.724Z,24.02
2022-12-11T03:48:49.550Z,21.48
2022-12-11T03:51:56.858Z,25.98
2022-12-11T03:55:05.054Z,25.52
2022-12-11T03:58:09.728Z,25.15
2022-12-11T04:01:14.283Z,25.52
2022-12-11T04:04:19.315Z,23.83
2022-12-11T04:07:23.917Z,24.75
2022-12-11T04:10:28.543Z,29.17
2022-12-11T04:13:32.904Z,29.92
2022-12-11T04:16:37.541Z,27.27
2022-12-11T04:20:00.388Z,29.52
2022-12-11T04:23:32.301Z,27.48
2022-12-11T04:26:36.912Z,29.92
2022-12-11T04:29:41.392Z,27.13
2022-12-11T04:32:45.857Z,31.13
2022-12-11T04:35:50.219Z,26.75
2022-12-11T04:38:54.569Z,30.90
2022-12-11T04:41:58.911Z,30.40
2022-12-11T04:45:05.243Z,29.60
2022-12-11T04:48:09.855Z,30.30
2022-12-11T04:51:15.587Z,30.67
2022-12-11T04:54:19.630Z,27.52
2022-12-11T04:57:24.503Z,29.13
2022-12-11T05:00:28.775Z,31.13
2022-12-11T05:03:33.255Z,28.17
2022-12-11T05:06:37.588Z,33.15
2022-12-11T05:09:41.715Z,30.75
2022-12-11T05:12:46.224Z,30.85
2022-12-11T05:15:50.725Z,29.85
2022-12-11T05:18:55.593Z,27.20
2022-12-11T05:21:59.931Z,28.20
2022-12-11T05:25:06.083Z,30.85
2022-12-11T05:28:10.491Z,30.33
2022-12-11T05:31:21.292Z,32.20
2022-12-11T05:34:25.926Z,27.90
2022-12-11T05:37:30.085Z,32.58
2022-12-11T05:40:34.528Z,28.23
2022-12-11T05:43:39.567Z,32.63
2022-12-11T05:46:44.092Z,29.02
2022-12-11T05:49:48.234Z,33.38
2022-12-11T05:52:52.332Z,31.55
2022-12-11T05:56:07.123Z,36.42
2022-12-11T05:59:11.428Z,34.15
2022-12-11T06:02:15.633Z,26.88
2022-12-11T06:05:20.134Z,35.17
2022-12-11T06:08:24.404Z,28.35
2022-12-11T06:11:33.776Z,31.77
2022-12-11T06:14:38.594Z,29.27
2022-12-11T06:17:43.269Z,27.05
2022-12-11T06:20:47.591Z,29.63
2022-12-11T06:23:54.296Z,26.95
2022-12-11T06:26:59.256Z,28.08
2022-12-11T06:30:04.492Z,28.58
2022-12-11T06:33:08.838Z,28.15
2022-12-11T06:36:19.349Z,24.08
2022-12-11T06:39:23.652Z,25.33
2022-12-11T06:42:30.871Z,35.45
2022-12-11T06:45:37.132Z,26.40
2022-12-11T06:48:42.909Z,30.20
2022-12-11T06:51:47.851Z,31.17
2022-12-11T06:54:52.433Z,27.13
2022-12-11T06:57:56.738Z,27.42
2022-12-11T07:01:02.129Z,28.90
2022-12-11T07:04:06.736Z,29.17
2022-12-11T07:07:11.461Z,32.72
2022-12-11T07:10:15.997Z,33.53
2022-12-11T07:13:20.354Z,31.60
2022-12-11T07:16:24.995Z,30.95
2022-12-11T07:19:29.634Z,29.80
2022-12-11T07:22:34.044Z,31.38
2022-12-11T07:25:38.416Z,26.63
2022-12-11T07:28:43.564Z,29.95
2022-12-11T07:31:48.284Z,29.17
2022-12-11T07:34:52.688Z,29.00
2022-12-11T07:37:57.698Z,33.50
2022-12-11T07:41:07.955Z,36.10
2022-12-11T07:44:12.656Z,30.83
2022-12-11T07:47:17.379Z,34.90
2022-12-11T07:50:21.617Z,37.22
2022-12-11T07:53:25.857Z,36.70
2022-12-11T07:56:32.358Z,36.35
2022-12-11T07:59:36.574Z,36.20
2022-12-11T08:02:41.033Z,37.53
2022-12-11T08:05:51.905Z,41.83
2022-12-11T08:08:58.024Z,45.05
2022-12-11T08:12:02.711Z,40.53
2022-12-11T08:15:08.060Z,38.17
2022-12-11T08:18:12.520Z,34.63
2022-12-11T08:21:26.131Z,39.67
2022-12-11T08:24:30.257Z,36.63
2022-12-11T08:27:34.636Z,33.03
2022-12-11T08:30:40.459Z,33.42
2022-12-11T08:33:45.743Z,35.40
2022-12-11T08:36:50.193Z,35.55
2022-12-11T08:39:54.594Z,33.42
2022-12-11T08:42:58.700Z,30.38
2022-12-11T08:46:03.135Z,33.88
2022-12-11T08:49:07.691Z,29.70
2022-12-11T08:52:12.297Z,30.77
2022-12-11T08:55:16.795Z,36.25
2022-12-11T08:58:20.937Z,32.85
2022-12-11T09:01:27.526Z,29.70
2022-12-11T09:04:32.413Z,30.75
2022-12-11T09:07:39.280Z,32.20
2022-12-11T09:10:43.988Z,30.40
2022-12-11T09:13:48.615Z,29.52
2022-12-11T09:16:52.632Z,33.08
2022-12-11T09:19:56.702Z,33.60
2022-12-11T09:23:01.668Z,30.80
2022-12-11T09:26:08.069Z,30.90
2022-12-11T09:29:13.446Z,31.80
2022-12-11T09:32:17.891Z,27.10
2022-12-11T09:35:22.576Z,30.63
2022-12-11T09:38:27.693Z,30.17
2022-12-11T09:41:59.910Z,36.35
2022-12-11T09:45:07.139Z,29.30
2022-12-11T09:48:17.779Z,31.83
2022-12-11T09:51:29.941Z,32.58
2022-12-11T09:54:35.291Z,30.73
2022-12-11T09:58:06.521Z,29.40
2022-12-11T10:01:34.781Z,31.65
2022-12-11T10:04:53.180Z,30.13
2022-12-11T10:08:38.205Z,32.22
2022-12-11T10:11:57.063Z,27.23
2022-12-11T10:15:33.589Z,33.80
2022-12-11T10:18:38.722Z,33.05
2022-12-11T10:21:43.868Z,28.23
2022-12-11T10:25:11.091Z,29.52
2022-12-11T10:28:32.079Z,20.13
2022-12-11T10:31:58.731Z,30.05
2022-12-11T10:35:06.634Z,28.75
2022-12-11T10:38:16.889Z,28.30
2022-12-11T10:41:33.710Z,29.02
2022-12-11T10:44:38.401Z,30.33
2022-12-11T10:47:42.937Z,28.60
2022-12-11T10:51:05.859Z,26.17
2022-12-11T10:54:35.583Z,31.43
2022-12-11T10:57:39.992Z,26.42
2022-12-11T11:00:44.500Z,31.40
2022-12-11T11:04:06.966Z,31.55
2022-12-11T11:07:18.899Z,26.80
2022-12-11T11:10:23.436Z,28.70
2022-12-11T11:13:31.270Z,26.13
2022-12-11T11:16:39.178Z,23.05
2022-12-11T11:19:48.123Z,29.27
2022-12-11T11:23:00.553Z,29.48
2022-12-11T11:26:09.328Z,25.27
2022-12-11T11:29:34.455Z,25.85
2022-12-11T11:32:41.387Z,26.13
2022-12-11T11:36:24.338Z,28.65
2022-12-11T11:39:36.041Z,28.27
2022-12-11T11:43:03.630Z,30.55
2022-12-11T11:46:17.813Z,29.33
2022-12-11T11:49:49.583Z,33.97
2022-12-11T11:53:19.308Z,31.15
2022-12-11T11:56:31.573Z,28.67
2022-12-11T11:59:44.617Z,30.20
2022-12-11T12:03:08.686Z,26.65
2022-12-11T12:06:27.851Z,28.38
2022-12-11T12:10:10.711Z,32.17
2022-12-11T12:17:09.125Z,31.15
2022-12-11T12:20:21.079Z,31.77
2022-12-11T12:24:04.043Z,31.98
2022-12-11T12:31:20.281Z,33.00
2022-12-11T12:34:42.546Z,31.98
2022-12-11T12:37:57.322Z,33.75
2022-12-11T12:41:14.134Z,36.05
2022-12-11T12:44:22.251Z,34.03
2022-12-11T12:47:31.327Z,31.67
2022-12-11T12:50:45.678Z,30.90
2022-12-11T12:54:01.551Z,30.60
2022-12-11T12:57:06.732Z,30.90
2022-12-11T13:00:13.390Z,31.00
2022-12-11T13:03:26.947Z,36.10
2022-12-11T13:06:40.057Z,32.25
2022-12-11T13:10:09.035Z,24.65
2022-12-11T13:13:40.620Z,39.28
2022-12-11T13:16:48.984Z,31.52
2022-12-11T13:20:20.542Z,30.20
2022-12-11T13:23:35.203Z,34.25
2022-12-11T13:26:40.414Z,33.78
2022-12-11T13:29:44.874Z,29.52
2022-12-11T13:33:15.703Z,32.65
2022-12-11T13:36:24.283Z,29.13
2022-12-11T13:39:39.392Z,31.45
2022-12-11T13:43:01.776Z,34.45
2022-12-11T13:46:12.171Z,32.78
2022-12-11T13:49:37.504Z,32.30
2022-12-11T13:52:52.407Z,29.25
2022-12-11T13:56:13.804Z,32.83
2022-12-11T13:59:26.094Z,34.75
2022-12-11T14:02:42.622Z,35.10
2022-12-11T14:05:47.685Z,32.70
2022-12-11T14:08:56.388Z,29.58
2022-12-11T14:12:03.987Z,57.30
2022-12-11T14:15:15.075Z,31.00
2022-12-11T14:18:24.678Z,30.77
2022-12-11T14:21:29.394Z,29.52
2022-12-11T14:24:33.618Z,31.88
2022-12-11T14:27:50.069Z,34.40
2022-12-11T14:31:01.111Z,36.63
2022-12-11T14:34:17.646Z,32.42
2022-12-11T14:37:23.847Z,29.63
2022-12-11T14:40:37.152Z,33.83
2022-12-11T14:43:51.675Z,34.35
2022-12-11T14:47:15.600Z,30.35
2022-12-11T14:50:28.113Z,30.08
2022-12-11T14:53:45.014Z,30.00
2022-12-11T14:56:49.296Z,40.10
2022-12-11T14:59:55.085Z,29.63
2022-12-11T15:03:23.017Z,30.60
2022-12-11T15:06:43.000Z,34.33
2022-12-11T15:09:47.725Z,34.30
2022-12-11T15:12:56.372Z,36.72
2022-12-11T15:16:01.632Z,33.38
2022-12-11T15:19:06.250Z,35.78
2022-12-11T15:22:15.926Z,37.03
2022-12-11T15:25:27.481Z,32.13
2022-12-11T15:28:39.757Z,34.78
2022-12-11T15:31:44.268Z,37.38
2022-12-11T15:34:56.222Z,36.55
2022-12-11T15:38:00.720Z,39.20
2022-12-11T15:41:06.124Z,35.88
2022-12-11T15:44:21.526Z,31.13
2022-12-11T15:47:30.313Z,41.63
2022-12-11T15:50:36.813Z,36.53
2022-12-11T15:53:41.554Z,37.22
2022-12-11T15:56:46.915Z,45.45
2022-12-11T15:59:54.184Z,46.22
2022-12-11T16:02:58.962Z,39.90
2022-12-11T16:06:03.765Z,41.38
2022-12-11T16:09:08.225Z,45.97
2022-12-11T16:12:14.345Z,44.83
2022-12-11T16:15:23.638Z,42.25
2022-12-11T16:18:28.674Z,42.67
2022-12-11T16:21:32.935Z,38.83
2022-12-11T16:24:37.873Z,45.80
2022-12-11T16:27:42.386Z,47.80
2022-12-11T16:30:47.617Z,53.72
2022-12-11T16:33:52.730Z,46.08
2022-12-11T16:37:00.975Z,42.13
2022-12-11T16:40:06.745Z,41.88
2022-12-11T16:43:11.293Z,47.35
2022-12-11T16:46:23.404Z,52.75
2022-12-11T16:49:28.033Z,53.08
2022-12-11T16:52:33.353Z,68.78
2022-12-11T16:55:39.815Z,70.03
2022-12-11T16:58:44.321Z,77.30
2022-12-11T17:01:50.670Z,74.93
2022-12-11T17:04:55.481Z,73.45
2022-12-11T17:08:00.064Z,62.28
2022-12-11T17:11:07.114Z,64.50
2022-12-11T17:14:12.545Z,63.38
2022-12-11T17:17:17.137Z,63.97
2022-12-11T17:20:21.244Z,67.80
2022-12-11T17:23:26.288Z,67.00
2022-12-11T17:26:31.462Z,53.58
2022-12-11T17:29:36.276Z,52.83
2022-12-11T17:32:40.827Z,54.63
2022-12-11T17:35:46.157Z,45.83
2022-12-11T17:38:50.465Z,49.03
2022-12-11T17:41:54.688Z,48.72
2022-12-11T17:44:59.417Z,53.42
2022-12-11T17:48:04.035Z,56.00
2022-12-11T17:51:11.645Z,102.38
2022-12-11T17:54:16.446Z,100.72
2022-12-11T17:57:21.007Z,71.53
2022-12-11T18:00:31.561Z,50.38
2022-12-11T18:03:38.117Z,49.10
2022-12-11T18:06:42.887Z,48.10
2022-12-11T18:09:48.902Z,50.25
2022-12-11T18:12:53.484Z,49.92
2022-12-11T18:16:21.249Z,50.40
2022-12-11T18:19:27.099Z,51.92
2022-12-11T18:22:31.860Z,51.17
2022-12-11T18:25:36.545Z,53.08
2022-12-11T18:28:42.474Z,55.05
2022-12-11T18:31:46.892Z,58.83
2022-12-11T18:34:51.118Z,50.55
2022-12-11T18:37:55.871Z,51.97
2022-12-11T18:41:09.840Z,47.53
2022-12-11T18:47:18.667Z,47.70
2022-12-11T18:50:23.315Z,52.33
2022-12-11T18:53:27.744Z,52.08
2022-12-11T18:56:32.236Z,48.05
2022-12-11T18:59:37.271Z,51.55
2022-12-11T19:02:41.577Z,57.08
2022-12-11T19:05:46.178Z,55.88
2022-12-11T19:08:51.576Z,52.03
2022-12-11T19:11:56.186Z,55.20
2022-12-11T19:15:00.639Z,54.97
2022-12-11T19:18:05.126Z,55.80
2022-12-11T19:21:12.697Z,57.92
2022-12-11T19:24:21.220Z,56.35
2022-12-11T19:27:25.997Z,56.50
2022-12-11T19:30:30.552Z,52.28
2022-12-11T19:33:35.131Z,54.67
2022-12-11T19:36:39.665Z,55.05
2022-12-11T19:39:44.143Z,55.63
2022-12-11T19:42:51.376Z,54.35
2022-12-11T19:45:56.110Z,54.35
2022-12-11T19:49:01.836Z,52.40
2022-12-11T19:52:06.317Z,60.58
2022-12-11T19:55:13.482Z,57.67
2022-12-11T19:58:19.383Z,55.42
2022-12-11T20:01:28.855Z,50.85
2022-12-11T20:04:33.655Z,59.28
2022-12-11T20:07:38.758Z,58.40
2022-12-11T20:10:43.476Z,55.28
2022-12-11T20:13:49.156Z,58.75
2022-12-11T20:17:13.908Z,54.60
2022-12-11T20:20:19.176Z,51.60
2022-12-11T20:23:23.612Z,54.70
2022-12-11T20:26:29.605Z,56.75
2022-12-11T20:29:34.028Z,55.72
2022-12-11T20:32:39.037Z,52.28
2022-12-11T20:35:44.147Z,59.00
2022-12-11T20:38:48.891Z,54.72
2022-12-11T20:41:53.411Z,56.97
2022-12-11T20:44:57.681Z,58.83
2022-12-11T20:48:02.132Z,58.53
2022-12-11T20:51:09.027Z,55.08
2022-12-11T20:54:13.845Z,59.13
2022-12-11T20:57:18.209Z,54.60
2022-12-11T21:00:22.566Z,53.80
2022-12-11T21:03:26.922Z,57.22
2022-12-11T21:06:34.777Z,59.22
2022-12-11T21:09:40.045Z,59.75
2022-12-11T21:12:44.550Z,56.40
2022-12-11T21:15:52.550Z,57.20
2022-12-11T21:18:58.122Z,54.60
2022-12-11T21:22:03.435Z,55.45
2022-12-11T21:25:08.495Z,57.08
2022-12-11T21:28:13.395Z,58.90
2022-12-11T21:31:19.858Z,57.60
2022-12-11T21:34:25.722Z,59.63
2022-12-11T21:37:30.569Z,57.22
2022-12-11T21:40:35.705Z,53.55
2022-12-11T21:44:03.269Z,62.35
2022-12-11T21:47:06.233Z,55.95
2022-12-11T21:50:11.251Z,60.70
2022-12-11T21:53:16.030Z,56.83
2022-12-11T21:56:23.240Z,63.80
2022-12-11T21:59:28.647Z,58.70
2022-12-11T22:02:39.047Z,58.22
2022-12-11T22:05:45.089Z,63.22
2022-12-11T22:08:49.978Z,50.72
2022-12-11T22:11:58.348Z,59.45
2022-12-11T22:15:04.311Z,50.47
2022-12-11T22:18:09.265Z,53.90
2022-12-11T22:21:15.178Z,62.78
2022-12-11T22:24:21.698Z,54.50
2022-12-11T22:27:26.259Z,56.97
2022-12-11T22:30:30.818Z,53.60
2022-12-11T22:33:35.507Z,54.55
2022-12-11T22:36:39.870Z,56.45
2022-12-11T22:39:44.956Z,54.70
2022-12-11T22:42:49.543Z,55.78
2022-12-11T22:45:55.132Z,51.03
2022-12-11T22:48:59.972Z,53.10
2022-12-11T22:52:04.754Z,49.72
2022-12-11T22:55:09.724Z,45.80
2022-12-11T22:58:20.023Z,48.90
2022-12-11T23:01:28.218Z,54.45
2022-12-11T23:04:33.194Z,54.65
2022-12-11T23:07:38.186Z,46.53
2022-12-11T23:10:42.569Z,52.88
2022-12-11T23:13:46.895Z,57.10
2022-12-11T23:16:51.341Z,57.28
2022-12-11T23:19:56.027Z,63.50
2022-12-11T23:23:00.469Z,56.33
2022-12-11T23:26:08.259Z,57.30
2022-12-11T23:29:12.740Z,56.85
2022-12-11T23:32:17.461Z,60.50
2022-12-11T23:35:21.928Z,62.80
2022-12-11T23:38:27.292Z,64.10
2022-12-11T23:41:31.741Z,62.88
2022-12-11T23:44:36.592Z,60.22
2022-12-11T23:47:40.967Z,56.50
2022-12-11T23:50:46.040Z,60.70
2022-12-11T23:53:51.211Z,62.97
2022-12-11T23:56:55.830Z,56.47
